Time;durP1;ratioP1;P1;durP2;ratioP2;P2;SDS_P1;SDS_P2;PMS_P1;PMS_P2;Temp;Humidity;BMP_temperature;BMP_pressure;BME280_temperature;BME280_humidity;BME280_pressure;Samples;Min_cycle;Max_cycle;Signal;HPM_P1;HPM_P2
2021/12/02 00:00:36;;;;;;;2.47;1.02;;;;;;;;;;5032533;28;20048;-83
2021/12/02 00:03:04;;;;;;;0.65;0.65;;;;;;;;;;5033492;28;20021;-84
2021/12/02 00:05:29;;;;;;;0.73;0.73;;;;;;;;;;5033335;28;20091;-86
2021/12/02 00:07:54;;;;;;;1.10;1.10;;;;;;;;;;5032907;28;20017;-86
2021/12/02 00:10:24;;;;;;;0.32;0.32;;;;;;;;;;5032433;28;20461;-87
2021/12/02 00:12:52;;;;;;;2.10;1.65;;;;;;;;;;5032342;28;20044;-87
2021/12/02 00:15:22;;;;;;;0.65;0.65;;;;;;;;;;5032277;28;20124;-85
2021/12/02 00:17:54;;;;;;;1.25;1.15;;;;;;;;;;5032556;28;20018;-86
2021/12/02 00:23:23;;;;;;;0.93;0.93;;;;;;;;;;5033260;28;20113;-86
2021/12/02 00:25:49;;;;;;;0.98;0.98;;;;;;;;;;5032197;28;20083;-86
2021/12/02 00:28:14;;;;;;;0.30;0.30;;;;;;;;;;5032147;28;20018;-87
2021/12/02 00:30:40;;;;;;;0.20;0.20;;;;;;;;;;5032428;28;20520;-83
2021/12/02 00:33:05;;;;;;;3.70;1.15;;;;;;;;;;5031956;28;20108;-87
2021/12/02 00:35:31;;;;;;;0.52;0.52;;;;;;;;;;5031935;28;20036;-86
2021/12/02 00:37:57;;;;;;;1.85;1.15;;;;;;;;;;5032117;28;20075;-86
2021/12/02 00:40:23;;;;;;;3.00;1.33;;;;;;;;;;5032006;28;20054;-87
2021/12/02 00:42:48;;;;;;;0.88;0.88;;;;;;;;;;5031856;28;20017;-84
2021/12/02 00:45:14;;;;;;;1.80;1.75;;;;;;;;;;5031771;28;20451;-84
2021/12/02 00:47:39;;;;;;;0.57;0.57;;;;;;;;;;5031461;28;20018;-85
2021/12/02 00:50:05;;;;;;;0.93;0.93;;;;;;;;;;5032110;28;20021;-86
2021/12/02 00:52:31;;;;;;;2.00;1.90;;;;;;;;;;5031721;28;20027;-84
2021/12/02 00:54:56;;;;;;;0.60;0.60;;;;;;;;;;5032970;28;20049;-86
2021/12/02 00:57:22;;;;;;;1.52;0.95;;;;;;;;;;5032307;28;20116;-84
2021/12/02 00:59:47;;;;;;;13.05;2.65;;;;;;;;;;5032243;28;20075;-85
2021/12/02 01:02:13;;;;;;;0.32;0.32;;;;;;;;;;5031587;28;20517;-85
2021/12/02 01:04:38;;;;;;;0.52;0.52;;;;;;;;;;5032056;28;20025;-85
2021/12/02 01:07:04;;;;;;;3.33;3.08;;;;;;;;;;5031675;28;20040;-85
2021/12/02 01:09:29;;;;;;;0.68;0.68;;;;;;;;;;5032763;28;20035;-86
2021/12/02 01:11:56;;;;;;;2.70;2.60;;;;;;;;;;5031585;28;20462;-85
2021/12/02 01:14:21;;;;;;;5.28;1.65;;;;;;;;;;5032325;28;20481;-86
2021/12/02 01:16:47;;;;;;;0.40;0.35;;;;;;;;;;5033734;28;20041;-87
2021/12/02 01:19:12;;;;;;;0.73;0.65;;;;;;;;;;5035381;28;20017;-86
2021/12/02 01:21:38;;;;;;;0.20;0.20;;;;;;;;;;5035420;28;20021;-86
2021/12/02 01:24:05;;;;;;;0.82;0.63;;;;;;;;;;5035274;28;20018;-87
2021/12/02 01:26:31;;;;;;;0.68;0.68;;;;;;;;;;5035258;28;20152;-84
2021/12/02 01:28:56;;;;;;;1.52;0.95;;;;;;;;;;5035181;28;20033;-84
2021/12/02 01:31:22;;;;;;;0.95;0.95;;;;;;;;;;5035235;28;20032;-85
2021/12/02 01:33:48;;;;;;;5.50;2.78;;;;;;;;;;5034847;28;20030;-86
2021/12/02 01:36:13;;;;;;;0.32;0.32;;;;;;;;;;5035942;28;20017;-86
2021/12/02 01:38:39;;;;;;;0.30;0.30;;;;;;;;;;5036137;28;20478;-85
2021/12/02 01:41:04;;;;;;;0.38;0.38;;;;;;;;;;5035130;28;20025;-87
2021/12/02 01:43:49;;;;;;;1.13;1.02;;;;;;;;;;5035095;28;20037;-87
2021/12/02 01:46:17;;;;;;;1.17;1.02;;;;;;;;;;5034961;28;20024;-87
2021/12/02 01:48:45;;;;;;;0.68;0.68;;;;;;;;;;5034957;28;20018;-89
2021/12/02 01:51:11;;;;;;;0.30;0.30;;;;;;;;;;5034991;28;20583;-86
2021/12/02 01:53:38;;;;;;;0.30;0.30;;;;;;;;;;5034841;28;20068;-89
2021/12/02 01:56:11;;;;;;;0.97;0.97;;;;;;;;;;5034796;28;20473;-89
2021/12/02 01:58:49;;;;;;;1.75;1.65;;;;;;;;;;5034664;28;20017;-88
2021/12/02 02:01:25;;;;;;;0.45;0.45;;;;;;;;;;5034657;28;20018;-86
2021/12/02 02:03:51;;;;;;;0.82;0.82;;;;;;;;;;5034972;28;20030;-88
2021/12/02 02:06:28;;;;;;;1.55;1.05;;;;;;;;;;5034379;28;20041;-88
2021/12/02 02:08:55;;;;;;;0.20;0.20;;;;;;;;;;5035116;28;20037;-89
2021/12/02 02:11:23;;;;;;;0.40;0.40;;;;;;;;;;5034450;28;20032;-88
2021/12/02 02:13:48;;;;;;;0.82;0.75;;;;;;;;;;5034549;28;20029;-90
2021/12/02 02:16:14;;;;;;;0.40;0.40;;;;;;;;;;5034759;28;20023;-88
2021/12/02 02:18:40;;;;;;;1.30;1.25;;;;;;;;;;5034549;28;20017;-87
2021/12/02 02:21:10;;;;;;;0.30;0.30;;;;;;;;;;5034663;28;20033;-88
2021/12/02 02:23:41;;;;;;;3.03;1.65;;;;;;;;;;5034603;28;20015;-85
2021/12/02 02:26:08;;;;;;;1.27;1.27;;;;;;;;;;5034826;28;20025;-87
2021/12/02 02:28:34;;;;;;;0.50;0.50;;;;;;;;;;5034212;28;20017;-86
2021/12/02 02:30:59;;;;;;;0.93;0.93;;;;;;;;;;5034082;28;20025;-88
2021/12/02 02:33:25;;;;;;;0.47;0.47;;;;;;;;;;5034152;28;20026;-88
2021/12/02 02:35:51;;;;;;;0.30;0.30;;;;;;;;;;5033998;28;20071;-86
2021/12/02 02:38:16;;;;;;;0.20;0.20;;;;;;;;;;5034304;28;20117;-86
2021/12/02 02:40:44;;;;;;;0.45;0.45;;;;;;;;;;5035462;28;20022;-87
2021/12/02 02:43:10;;;;;;;;;;;;;;;;;;5034199;28;20478;-87
2021/12/02 02:45:36;;;;;;;0.33;0.33;;;;;;;;;;5033908;28;19916;-86
2021/12/02 02:48:02;;;;;;;0.20;0.20;;;;;;;;;;5033866;28;20260;-87
2021/12/02 02:50:29;;;;;;;0.77;0.77;;;;;;;;;;5033956;28;20374;-88
2021/12/02 02:53:02;;;;;;;0.60;0.60;;;;;;;;;;5034373;28;20045;-89
2021/12/02 02:55:27;;;;;;;0.20;0.20;;;;;;;;;;5034252;28;20563;-85
2021/12/02 02:58:09;;;;;;;0.40;0.40;;;;;;;;;;5033693;28;20025;-86
2021/12/02 03:00:45;;;;;;;1.52;1.42;;;;;;;;;;5032588;28;20027;-88
2021/12/02 03:06:03;;;;;;;0.22;0.22;;;;;;;;;;5034564;28;20021;-87
2021/12/02 03:08:34;;;;;;;0.20;0.20;;;;;;;;;;5034099;28;20048;-87
2021/12/02 03:11:00;;;;;;;0.40;0.40;;;;;;;;;;5034582;28;20045;-87
2021/12/02 03:13:37;;;;;;;0.45;0.45;;;;;;;;;;5033244;28;20064;-86
2021/12/02 03:18:46;;;;;;;0.20;0.20;;;;;;;;;;5034676;28;20075;-85
2021/12/02 03:21:18;;;;;;;0.32;0.32;;;;;;;;;;5033319;28;20013;-86
2021/12/02 03:23:51;;;;;;;0.30;0.30;;;;;;;;;;5033625;28;20116;-89
2021/12/02 03:26:17;;;;;;;0.20;0.20;;;;;;;;;;5033469;28;20385;-86
2021/12/02 03:28:42;;;;;;;0.43;0.43;;;;;;;;;;5033058;28;20017;-86
2021/12/02 03:31:10;;;;;;;0.22;0.22;;;;;;;;;;5033911;28;20029;-89
2021/12/02 03:33:35;;;;;;;1.95;1.85;;;;;;;;;;5032740;28;20409;-87
2021/12/02 03:36:00;;;;;;;0.93;0.88;;;;;;;;;;5034118;28;20033;-88
2021/12/02 03:38:26;;;;;;;0.30;0.30;;;;;;;;;;5032936;28;20052;-88
2021/12/02 03:40:51;;;;;;;0.32;0.32;;;;;;;;;;5033500;28;20021;-89
2021/12/02 03:43:17;;;;;;;1.65;1.55;;;;;;;;;;5032742;28;20040;-87
2021/12/02 03:45:42;;;;;;;0.20;0.20;;;;;;;;;;5032707;28;20108;-88
2021/12/02 03:48:07;;;;;;;0.70;0.70;;;;;;;;;;5033061;28;20062;-89
2021/12/02 03:50:32;;;;;;;0.25;0.25;;;;;;;;;;5033451;28;20021;-88
2021/12/02 03:52:58;;;;;;;0.63;0.40;;;;;;;;;;5032907;28;20440;-85
2021/12/02 03:55:24;;;;;;;0.28;0.28;;;;;;;;;;5033668;28;20097;-89
2021/12/02 03:57:50;;;;;;;0.80;0.80;;;;;;;;;;5033706;28;20017;-86
2021/12/02 04:00:15;;;;;;;0.30;0.30;;;;;;;;;;5032489;28;20078;-85
2021/12/02 04:02:41;;;;;;;0.30;0.30;;;;;;;;;;5032525;28;20018;-86
2021/12/02 04:05:06;;;;;;;0.47;0.47;;;;;;;;;;5032407;28;20025;-86
2021/12/02 04:07:31;;;;;;;2.63;0.90;;;;;;;;;;5032436;28;20528;-87
2021/12/02 04:09:58;;;;;;;0.35;0.35;;;;;;;;;;5032203;28;20024;-87
2021/12/02 04:12:44;;;;;;;0.68;0.68;;;;;;;;;;5032375;28;20020;-86
2021/12/02 04:15:17;;;;;;;1.27;1.23;;;;;;;;;;5033411;28;20075;-90
2021/12/02 04:17:43;;;;;;;1.20;1.08;;;;;;;;;;5032511;28;20029;-86
2021/12/02 04:20:16;;;;;;;0.30;0.30;;;;;;;;;;5032519;28;20482;-86
2021/12/02 04:22:42;;;;;;;4.95;1.85;;;;;;;;;;5032123;28;20025;-86
2021/12/02 04:25:08;;;;;;;0.28;0.28;;;;;;;;;;5032117;28;20037;-88
2021/12/02 04:27:33;;;;;;;0.70;0.70;;;;;;;;;;5032763;28;20053;-87
2021/12/02 04:29:59;;;;;;;0.38;0.30;;;;;;;;;;5032183;28;20025;-87
2021/12/02 04:32:24;;;;;;;0.57;0.57;;;;;;;;;;5032092;28;20071;-89
2021/12/02 04:34:50;;;;;;;0.20;0.20;;;;;;;;;;5031969;28;20056;-88
2021/12/02 04:37:15;;;;;;;0.95;0.93;;;;;;;;;;5032236;28;20022;-88
2021/12/02 04:39:40;;;;;;;0.20;0.20;;;;;;;;;;5032170;28;20060;-89
2021/12/02 04:42:06;;;;;;;0.30;0.30;;;;;;;;;;5032415;28;20048;-88
2021/12/02 04:44:31;;;;;;;0.60;0.60;;;;;;;;;;5031944;28;20047;-90
2021/12/02 04:46:56;;;;;;;0.93;0.93;;;;;;;;;;5032361;28;20026;-88
2021/12/02 04:49:21;;;;;;;0.30;0.30;;;;;;;;;;5031738;28;20013;-89
2021/12/02 04:51:47;;;;;;;0.80;0.80;;;;;;;;;;5034065;28;20056;-88
2021/12/02 04:54:12;;;;;;;0.40;0.40;;;;;;;;;;5035731;28;20113;-89
2021/12/02 04:56:38;;;;;;;0.30;0.30;;;;;;;;;;5036605;28;20068;-90
2021/12/02 04:59:03;;;;;;;0.73;0.70;;;;;;;;;;5036189;28;20021;-88
2021/12/02 05:01:28;;;;;;;0.30;0.30;;;;;;;;;;5035949;28;20422;-88
2021/12/02 05:03:54;;;;;;;0.43;0.43;;;;;;;;;;5035822;28;20516;-88
2021/12/02 05:06:19;;;;;;;0.22;0.22;;;;;;;;;;5035836;28;20125;-90
2021/12/02 05:08:44;;;;;;;0.20;0.20;;;;;;;;;;5035727;28;20028;-87
2021/12/02 05:11:10;;;;;;;0.30;0.30;;;;;;;;;;5037046;28;20013;-89
2021/12/02 05:13:38;;;;;;;0.30;0.30;;;;;;;;;;5035687;28;20021;-88
2021/12/02 05:16:03;;;;;;;0.30;0.30;;;;;;;;;;5036558;28;20470;-88
2021/12/02 05:18:29;;;;;;;0.60;0.60;;;;;;;;;;5035531;28;20026;-87
2021/12/02 05:20:54;;;;;;;0.45;0.45;;;;;;;;;;5036730;28;20025;-87
2021/12/02 05:23:19;;;;;;;0.95;0.95;;;;;;;;;;5035518;28;20025;-88
2021/12/02 05:25:45;;;;;;;0.52;0.52;;;;;;;;;;5035369;28;20112;-88
2021/12/02 05:28:15;;;;;;;0.50;0.50;;;;;;;;;;5035375;28;20024;-90
2021/12/02 05:30:41;;;;;;;0.50;0.50;;;;;;;;;;5035515;28;20493;-90
2021/12/02 05:33:06;;;;;;;0.30;0.30;;;;;;;;;;5034888;28;20028;-89
2021/12/02 05:35:31;;;;;;;0.63;0.63;;;;;;;;;;5035359;28;20018;-90
2021/12/02 05:37:57;;;;;;;0.25;0.25;;;;;;;;;;5035327;28;20087;-89
2021/12/02 05:40:22;;;;;;;0.93;0.93;;;;;;;;;;5035116;28;20046;-88
2021/12/02 05:42:47;;;;;;;0.45;0.45;;;;;;;;;;5035125;28;20036;-90
2021/12/02 05:45:12;;;;;;;0.30;0.30;;;;;;;;;;5035083;28;20052;-89
2021/12/02 05:47:38;;;;;;;0.38;0.38;;;;;;;;;;5036283;28;20405;-89
2021/12/02 05:50:03;;;;;;;0.30;0.30;;;;;;;;;;5035609;28;20049;-88
2021/12/02 05:52:29;;;;;;;0.45;0.45;;;;;;;;;;5035253;28;20478;-88
2021/12/02 05:54:54;;;;;;;1.05;1.05;;;;;;;;;;5035015;28;20083;-88
2021/12/02 05:57:19;;;;;;;0.77;0.60;;;;;;;;;;5036304;28;20013;-88
2021/12/02 05:59:45;;;;;;;0.30;0.30;;;;;;;;;;5035953;28;20018;-88
2021/12/02 06:02:10;;;;;;;0.35;0.35;;;;;;;;;;5034224;28;20017;-89
2021/12/02 06:04:39;;;;;;;1.65;0.88;;;;;;;;;;5035997;28;20025;-88
2021/12/02 06:07:05;;;;;;;1.55;1.45;;;;;;;;;;5034761;28;20045;-84
2021/12/02 06:09:30;;;;;;;0.60;0.60;;;;;;;;;;5034776;28;20061;-87
2021/12/02 06:11:56;;;;;;;0.30;0.30;;;;;;;;;;5034865;28;20112;-90
2021/12/02 06:14:21;;;;;;;0.35;0.35;;;;;;;;;;5034407;28;20468;-87
2021/12/02 06:16:46;;;;;;;0.25;0.25;;;;;;;;;;5034686;28;20043;-86
2021/12/02 06:19:12;;;;;;;0.30;0.30;;;;;;;;;;5034453;28;20056;-90
2021/12/02 06:21:37;;;;;;;0.50;0.50;;;;;;;;;;5034576;28;20378;-91
2021/12/02 06:24:05;;;;;;;0.35;0.35;;;;;;;;;;5034733;28;20095;-91
2021/12/02 06:26:30;;;;;;;0.30;0.30;;;;;;;;;;5034287;28;20025;-87
2021/12/02 06:28:55;;;;;;;0.75;0.75;;;;;;;;;;5034344;28;20112;-89
2021/12/02 06:31:21;;;;;;;1.27;1.13;;;;;;;;;;5035236;28;20060;-89
2021/12/02 06:33:46;;;;;;;1.13;1.13;;;;;;;;;;5034537;28;20082;-88
2021/12/02 06:36:11;;;;;;;0.30;0.30;;;;;;;;;;5034040;28;20378;-86
2021/12/02 06:38:37;;;;;;;2.20;1.90;;;;;;;;;;5034776;28;20105;-84
2021/12/02 06:41:02;;;;;;;0.20;0.20;;;;;;;;;;5034985;28;20263;-85
2021/12/02 06:43:27;;;;;;;1.02;1.02;;;;;;;;;;5034175;28;20099;-87
2021/12/02 06:45:53;;;;;;;0.20;0.20;;;;;;;;;;5033863;28;20112;-87
2021/12/02 06:48:18;;;;;;;0.50;0.50;;;;;;;;;;5033839;28;20024;-89
2021/12/02 06:50:44;;;;;;;0.60;0.60;;;;;;;;;;5033810;28;20024;-87
2021/12/02 06:53:09;;;;;;;0.30;0.30;;;;;;;;;;5034086;28;20433;-90
2021/12/02 06:55:34;;;;;;;2.63;2.47;;;;;;;;;;5033890;28;20021;-90
2021/12/02 06:58:00;;;;;;;0.63;0.63;;;;;;;;;;5033724;28;20020;-88
2021/12/02 07:00:25;;;;;;;0.95;0.95;;;;;;;;;;5033745;28;20454;-88
2021/12/02 07:02:54;;;;;;;0.57;0.57;;;;;;;;;;5033544;28;20021;-88
2021/12/02 07:05:20;;;;;;;0.95;0.95;;;;;;;;;;5033675;28;20431;-87
2021/12/02 07:07:45;;;;;;;0.73;0.73;;;;;;;;;;5033492;28;20109;-88
2021/12/02 07:10:13;;;;;;;0.82;0.82;;;;;;;;;;5033471;28;20394;-90
2021/12/02 07:12:41;;;;;;;0.50;0.50;;;;;;;;;;5034452;28;20018;-88
2021/12/02 07:15:09;;;;;;;;;;;;;;;;;;5032803;28;20029;-89
2021/12/02 07:17:35;;;;;;;1.20;1.20;;;;;;;;;;5033285;28;19955;-86
2021/12/02 07:20:00;;;;;;;0.22;0.22;;;;;;;;;;5033302;28;20071;-89
2021/12/02 07:22:26;;;;;;;0.73;0.73;;;;;;;;;;5033735;28;20497;-86
2021/12/02 07:24:51;;;;;;;0.30;0.30;;;;;;;;;;5033166;28;20057;-87
2021/12/02 07:27:16;;;;;;;0.40;0.40;;;;;;;;;;5033199;28;20022;-86
2021/12/02 07:29:42;;;;;;;0.30;0.30;;;;;;;;;;5034016;28;20371;-84
2021/12/02 07:32:10;;;;;;;1.08;0.73;;;;;;;;;;5032848;28;20030;-86
2021/12/02 07:34:37;;;;;;;0.50;0.50;;;;;;;;;;5033951;28;20470;-83
2021/12/02 07:37:03;;;;;;;1.45;1.45;;;;;;;;;;5033009;28;20068;-86
2021/12/02 07:39:29;;;;;;;0.63;0.63;;;;;;;;;;5033668;28;20494;-84
2021/12/02 07:41:54;;;;;;;1.10;1.10;;;;;;;;;;5032795;28;20116;-85
2021/12/02 07:44:20;;;;;;;0.50;0.50;;;;;;;;;;5032437;28;20047;-85
2021/12/02 07:46:46;;;;;;;1.27;0.98;;;;;;;;;;5033159;28;20025;-84
2021/12/02 07:49:14;;;;;;;0.32;0.32;;;;;;;;;;5032877;28;20022;-84
2021/12/02 07:51:42;;;;;;;0.28;0.25;;;;;;;;;;5032881;28;20025;-85
2021/12/02 07:54:07;;;;;;;0.40;0.40;;;;;;;;;;5032679;28;20078;-87
2021/12/02 07:56:33;;;;;;;0.32;0.32;;;;;;;;;;5032654;28;20112;-87
2021/12/02 07:58:59;;;;;;;3.17;1.67;;;;;;;;;;5032335;28;20028;-86
2021/12/02 08:01:24;;;;;;;0.80;0.80;;;;;;;;;;5032858;28;20100;-84
2021/12/02 08:03:51;;;;;;;3.55;2.45;;;;;;;;;;5032291;28;20087;-85
2021/12/02 08:06:17;;;;;;;7.68;1.60;;;;;;;;;;5033517;28;20022;-85
2021/12/02 08:08:44;;;;;;;5.75;3.05;;;;;;;;;;5032375;28;20094;-86
2021/12/02 08:11:10;;;;;;;1.73;1.63;;;;;;;;;;5032289;28;20021;-88
2021/12/02 08:13:36;;;;;;;1.38;1.27;;;;;;;;;;5032293;28;20029;-90
2021/12/02 08:16:02;;;;;;;1.50;1.50;;;;;;;;;;5032291;28;20509;-89
2021/12/02 08:18:28;;;;;;;3.47;2.00;;;;;;;;;;5032333;28;20021;-89
2021/12/02 08:20:54;;;;;;;0.68;0.68;;;;;;;;;;5032306;28;20016;-87
2021/12/02 08:23:19;;;;;;;0.35;0.35;;;;;;;;;;5032181;28;20021;-86
2021/12/02 08:25:45;;;;;;;2.40;2.20;;;;;;;;;;5031858;28;20021;-88
2021/12/02 08:28:10;;;;;;;2.60;2.00;;;;;;;;;;5032011;28;20017;-91
2021/12/02 08:30:37;;;;;;;3.25;3.05;;;;;;;;;;5033066;28;20029;-89
2021/12/02 08:33:03;;;;;;;0.73;0.73;;;;;;;;;;5032054;28;20116;-90
2021/12/02 08:35:28;;;;;;;0.93;0.93;;;;;;;;;;5033113;28;20029;-89
2021/12/02 08:37:58;;;;;;;0.73;0.68;;;;;;;;;;5032055;28;20079;-87
2021/12/02 08:40:35;;;;;;;4.43;1.52;;;;;;;;;;5031693;28;20084;-89
2021/12/02 08:43:01;;;;;;;1.63;1.52;;;;;;;;;;5031916;28;20017;-86
2021/12/02 08:45:27;;;;;;;4.03;2.58;;;;;;;;;;5032019;28;20038;-90
2021/12/02 08:47:53;;;;;;;1.83;1.73;;;;;;;;;;5032216;28;20112;-87
2021/12/02 08:50:19;;;;;;;0.75;0.75;;;;;;;;;;5031887;28;20059;-88
2021/12/02 08:52:46;;;;;;;1.35;1.25;;;;;;;;;;5031895;28;20478;-88
2021/12/02 08:55:12;;;;;;;0.82;0.82;;;;;;;;;;5031881;28;20036;-89
2021/12/02 08:57:37;;;;;;;6.68;1.58;;;;;;;;;;5032283;28;20021;-89
2021/12/02 09:00:04;;;;;;;2.78;2.58;;;;;;;;;;5031925;28;20172;-91
2021/12/02 09:02:29;;;;;;;2.85;2.58;;;;;;;;;;5032097;28;20018;-88
2021/12/02 09:04:54;;;;;;;2.87;2.67;;;;;;;;;;5032727;28;20036;-85
2021/12/02 09:07:19;;;;;;;2.90;2.70;;;;;;;;;;5031711;28;20760;-86
2021/12/02 09:09:45;;;;;;;1.70;1.25;;;;;;;;;;5031451;28;20014;-86
2021/12/02 09:12:10;;;;;;;1.58;1.48;;;;;;;;;;5031554;28;20079;-85
2021/12/02 09:14:36;;;;;;;2.45;2.25;;;;;;;;;;5031712;28;20025;-84
2021/12/02 09:17:02;;;;;;;2.38;2.17;;;;;;;;;;5031792;28;20041;-82
2021/12/02 09:19:27;;;;;;;2.50;2.35;;;;;;;;;;5032776;28;20625;-84
2021/12/02 09:21:53;;;;;;;12.25;3.72;;;;;;;;;;5031791;28;20027;-83
2021/12/02 09:24:18;;;;;;;2.63;2.25;;;;;;;;;;5031368;28;20044;-82
2021/12/02 09:26:53;;;;;;;2.50;2.22;;;;;;;;;;5031868;28;20064;-81
2021/12/02 09:29:20;;;;;;;2.30;2.10;;;;;;;;;;5032066;28;20014;-82
2021/12/02 09:31:46;;;;;;;2.00;1.90;;;;;;;;;;5032817;28;20402;-82
2021/12/02 09:34:11;;;;;;;3.30;2.50;;;;;;;;;;5032469;28;20022;-82
2021/12/02 09:36:37;;;;;;;1.42;1.42;;;;;;;;;;5031343;28;20026;-84
2021/12/02 09:39:03;;;;;;;2.13;1.58;;;;;;;;;;5034799;28;20041;-81
2021/12/02 09:41:29;;;;;;;2.28;2.17;;;;;;;;;;5034537;28;20045;-83
2021/12/02 09:43:54;;;;;;;1.25;1.25;;;;;;;;;;5034797;28;20474;-82
2021/12/02 09:46:19;;;;;;;0.98;0.82;;;;;;;;;;5035042;28;20029;-82
2021/12/02 09:48:45;;;;;;;2.85;2.70;;;;;;;;;;5034868;28;20496;-80
2021/12/02 09:51:14;;;;;;;1.63;1.52;;;;;;;;;;5034940;28;20021;-82
2021/12/02 09:53:58;;;;;;;1.02;1.02;;;;;;;;;;5034734;28;20122;-82
2021/12/02 09:56:32;;;;;;;3.17;2.95;;;;;;;;;;5035361;28;20527;-83
2021/12/02 09:59:04;;;;;;;6.53;2.58;;;;;;;;;;5034754;28;20056;-83
2021/12/02 10:02:04;;;;;;;2.47;2.28;;;;;;;;;;5038949;28;20055;-82
2021/12/02 10:04:22;;;;;;;22.00;2.13;;;;;;;;;;5035849;28;20119;-83
2021/12/02 10:06:47;;;;;;;3.03;2.58;;;;;;;;;;5034460;28;20496;-82
2021/12/02 10:09:52;;;;;;;4.18;3.83;;;;;;;;;;5034512;28;20018;-84
2021/12/02 10:12:18;;;;;;;6.72;4.32;;;;;;;;;;5035159;28;20060;-85
2021/12/02 10:14:53;;;;;;;4.33;3.37;;;;;;;;;;5034753;28;20025;-83
2021/12/02 10:20:51;;;;;;;5.93;3.42;;;;;;;;;;5035437;28;20465;-82
2021/12/02 10:23:05;;;;;;;1.90;1.80;;;;;;;;;;5034714;28;20079;-82
2021/12/02 10:25:31;;;;;;;2.25;1.80;;;;;;;;;;5034104;28;20037;-83
2021/12/02 10:28:00;;;;;;;3.38;1.88;;;;;;;;;;5034086;28;20516;-84
2021/12/02 10:30:26;;;;;;;2.50;2.35;;;;;;;;;;5034249;28;20501;-84
2021/12/02 10:32:51;;;;;;;0.50;0.50;;;;;;;;;;5034054;28;20053;-81
2021/12/02 10:35:18;;;;;;;1.58;1.23;;;;;;;;;;5033981;28;20123;-83
2021/12/02 10:37:43;;;;;;;1.05;1.05;;;;;;;;;;5034014;28;20454;-82
2021/12/02 10:40:11;;;;;;;0.47;0.47;;;;;;;;;;5033560;28;20077;-82
2021/12/02 10:42:43;;;;;;;0.98;0.75;;;;;;;;;;5033923;28;20014;-82
2021/12/02 10:45:25;;;;;;;0.60;0.60;;;;;;;;;;5034138;28;20087;-83
2021/12/02 10:47:52;;;;;;;3.25;1.23;;;;;;;;;;5034296;28;20033;-85
2021/12/02 10:50:18;;;;;;;0.93;0.93;;;;;;;;;;5034027;28;20089;-84
2021/12/02 10:52:43;;;;;;;0.95;0.95;;;;;;;;;;5033550;28;20045;-82
2021/12/02 10:55:09;;;;;;;2.47;1.13;;;;;;;;;;5033801;28;20112;-83
